createdAt,value
2023-11-15T00:01:10.241Z,9.44
2023-11-15T00:03:37.343Z,10.04
2023-11-15T00:06:04.964Z,10.15
2023-11-15T00:08:32.279Z,9.99
2023-11-15T00:10:59.260Z,9.78
2023-11-15T00:13:26.265Z,9.57
2023-11-15T00:15:53.287Z,9.38
2023-11-15T00:18:20.225Z,9.16
2023-11-15T00:20:47.336Z,9.68
2023-11-15T00:23:14.229Z,10.36
2023-11-15T00:25:41.402Z,10.54
2023-11-15T00:28:09.782Z,10.39
2023-11-15T00:30:37.205Z,10.16
2023-11-15T00:33:04.285Z,10.04
2023-11-15T00:35:31.608Z,9.96
2023-11-15T00:37:58.808Z,9.88
2023-11-15T00:40:26.111Z,10.48
2023-11-15T00:42:55.291Z,11.24
2023-11-15T00:45:25.116Z,11.50
2023-11-15T00:47:52.943Z,11.44
2023-11-15T00:50:20.115Z,11.23
2023-11-15T00:52:47.164Z,10.99
2023-11-15T00:55:14.248Z,10.77
2023-11-15T00:57:41.388Z,10.56
2023-11-15T01:00:25.294Z,10.98
2023-11-15T01:02:55.884Z,11.66
2023-11-15T01:05:23.073Z,11.76
2023-11-15T01:07:50.915Z,11.64
2023-11-15T01:10:19.895Z,11.44
2023-11-15T01:12:47.265Z,11.22
2023-11-15T01:15:14.666Z,11.01
2023-11-15T01:17:44.100Z,10.85
2023-11-15T01:20:13.889Z,10.66
2023-11-15T01:22:41.670Z,11.20
2023-11-15T01:25:08.906Z,11.86
2023-11-15T01:27:38.931Z,12.01
2023-11-15T01:30:06.771Z,11.88
2023-11-15T01:32:34.398Z,11.72
2023-11-15T01:35:01.808Z,11.53
2023-11-15T01:37:28.768Z,11.35
2023-11-15T01:39:55.636Z,11.18
2023-11-15T01:42:22.599Z,11.06
2023-11-15T01:44:49.567Z,10.91
2023-11-15T01:47:16.549Z,11.50
2023-11-15T01:49:43.768Z,12.21
2023-11-15T01:52:10.769Z,12.39
2023-11-15T01:54:37.763Z,12.29
2023-11-15T01:57:05.055Z,12.10
2023-11-15T01:59:31.970Z,11.88
2023-11-15T02:01:58.942Z,11.71
2023-11-15T02:04:27.026Z,11.52
2023-11-15T02:06:54.057Z,11.35
2023-11-15T02:09:21.578Z,11.17
2023-11-15T02:11:48.634Z,11.67
2023-11-15T02:14:16.119Z,12.31
2023-11-15T02:16:45.835Z,12.42
2023-11-15T02:19:15.819Z,12.27
2023-11-15T02:21:42.783Z,12.03
2023-11-15T02:24:11.274Z,11.77
2023-11-15T02:26:38.183Z,11.54
2023-11-15T02:29:05.229Z,11.35
2023-11-15T02:31:33.403Z,11.16
2023-11-15T02:34:00.330Z,10.96
2023-11-15T02:36:29.764Z,11.49
2023-11-15T02:38:56.926Z,12.18
2023-11-15T02:41:25.725Z,12.34
2023-11-15T02:43:52.693Z,12.21
2023-11-15T02:46:24.147Z,11.98
2023-11-15T02:48:51.590Z,11.76
2023-11-15T02:51:19.291Z,11.56
2023-11-15T02:53:46.295Z,11.37
2023-11-15T02:56:13.250Z,11.19
2023-11-15T02:58:40.133Z,10.99
2023-11-15T03:01:12.555Z,11.51
2023-11-15T03:03:41.258Z,12.17
2023-11-15T03:06:08.520Z,12.28
2023-11-15T03:08:35.618Z,12.08
2023-11-15T03:11:02.753Z,11.85
2023-11-15T03:13:29.822Z,11.63
2023-11-15T03:15:57.333Z,11.41
2023-11-15T03:18:24.474Z,11.24
2023-11-15T03:20:52.300Z,11.06
2023-11-15T03:23:20.724Z,10.86
2023-11-15T03:25:47.701Z,11.40
2023-11-15T03:28:14.814Z,12.06
2023-11-15T03:30:41.701Z,12.15
2023-11-15T03:33:08.781Z,12.00
2023-11-15T03:35:36.973Z,11.74
2023-11-15T03:38:03.992Z,11.48
2023-11-15T03:40:31.123Z,11.25
2023-11-15T03:42:58.086Z,11.06
2023-11-15T03:45:24.963Z,10.86
2023-11-15T03:47:51.990Z,10.66
2023-11-15T03:50:19.605Z,11.17
2023-11-15T03:52:46.528Z,11.81
2023-11-15T03:55:14.164Z,11.99
2023-11-15T03:57:42.206Z,11.87
2023-11-15T04:00:11.861Z,11.68
2023-11-15T04:02:42.152Z,11.47
2023-11-15T04:05:10.646Z,11.21
2023-11-15T04:07:38.628Z,11.03
2023-11-15T04:10:07.112Z,10.83
2023-11-15T04:12:34.706Z,11.31
2023-11-15T04:15:01.788Z,11.95
2023-11-15T04:17:29.018Z,12.09
2023-11-15T04:19:56.095Z,11.97
2023-11-15T04:22:23.493Z,11.76
2023-11-15T04:24:51.743Z,11.52
2023-11-15T04:27:18.626Z,11.29
2023-11-15T04:29:45.707Z,11.06
2023-11-15T04:32:12.617Z,11.51
2023-11-15T04:34:39.689Z,12.09
2023-11-15T04:37:06.598Z,12.16
2023-11-15T04:39:34.925Z,12.00
2023-11-15T04:42:03.145Z,11.77
2023-11-15T04:44:31.932Z,11.52
2023-11-15T04:46:59.037Z,11.23
2023-11-15T04:49:27.740Z,10.97
2023-11-15T04:51:54.617Z,11.44
2023-11-15T04:54:21.923Z,12.02
2023-11-15T04:56:48.987Z,12.09
2023-11-15T04:59:15.988Z,11.89
2023-11-15T05:01:46.908Z,11.61
2023-11-15T05:04:17.378Z,11.37
2023-11-15T05:06:45.678Z,11.14
2023-11-15T05:09:12.797Z,10.89
2023-11-15T05:11:39.732Z,11.36
2023-11-15T05:14:07.689Z,11.94
2023-11-15T05:16:34.640Z,11.99
2023-11-15T05:19:01.835Z,11.77
2023-11-15T05:21:28.972Z,11.48
2023-11-15T05:23:58.365Z,11.25
2023-11-15T05:26:25.529Z,10.96
2023-11-15T05:28:52.504Z,11.34
2023-11-15T05:31:19.554Z,11.89
2023-11-15T05:33:47.418Z,11.95
2023-11-15T05:36:14.342Z,11.77
2023-11-15T05:38:42.046Z,11.52
2023-11-15T05:41:09.645Z,11.26
2023-11-15T05:43:36.582Z,11.00
2023-11-15T05:46:03.800Z,10.75
2023-11-15T05:48:31.554Z,11.25
2023-11-15T05:50:58.598Z,11.84
2023-11-15T05:53:25.665Z,11.95
2023-11-15T05:55:53.510Z,11.76
2023-11-15T05:58:20.918Z,11.51
2023-11-15T06:00:47.999Z,11.23
2023-11-15T06:03:15.355Z,10.93
2023-11-15T06:05:44.015Z,11.27
2023-11-15T06:08:11.006Z,11.80
2023-11-15T06:10:37.939Z,11.84
2023-11-15T06:13:07.363Z,11.66
2023-11-15T06:15:34.311Z,11.39
2023-11-15T06:18:03.190Z,11.16
2023-11-15T06:20:31.198Z,10.92
2023-11-15T06:22:58.425Z,11.37
2023-11-15T06:25:25.514Z,11.94
2023-11-15T06:27:53.885Z,11.99
2023-11-15T06:30:21.257Z,11.75
2023-11-15T06:32:48.360Z,11.46
2023-11-15T06:35:20.152Z,11.21
2023-11-15T06:37:48.865Z,10.91
2023-11-15T06:40:16.188Z,11.34
2023-11-15T06:42:44.036Z,11.91
2023-11-15T06:45:11.485Z,12.01
2023-11-15T06:47:38.532Z,11.88
2023-11-15T06:50:06.116Z,11.69
2023-11-15T06:52:33.888Z,11.47
2023-11-15T06:55:00.878Z,11.24
2023-11-15T06:57:27.747Z,11.04
2023-11-15T06:59:54.808Z,11.59
2023-11-15T07:02:22.160Z,12.24
2023-11-15T07:04:49.059Z,12.36
2023-11-15T07:07:16.112Z,12.17
2023-11-15T07:09:43.098Z,11.90
2023-11-15T07:12:10.736Z,11.67
2023-11-15T07:14:37.875Z,11.41
2023-11-15T07:17:04.964Z,11.82
2023-11-15T07:19:34.948Z,12.41
2023-11-15T07:22:01.843Z,12.51
2023-11-15T07:24:29.301Z,12.31
2023-11-15T07:26:58.231Z,12.02
2023-11-15T07:29:27.583Z,11.75
2023-11-15T07:31:55.088Z,11.52
2023-11-15T07:34:23.809Z,11.28
2023-11-15T07:36:59.854Z,11.77
2023-11-15T07:39:27.189Z,12.43
2023-11-15T07:41:58.683Z,12.48
2023-11-15T07:44:27.309Z,12.27
2023-11-15T07:46:56.192Z,12.01
2023-11-15T07:49:25.996Z,11.76
2023-11-15T07:51:52.954Z,11.49
2023-11-15T07:54:20.789Z,11.93
2023-11-15T07:56:47.951Z,12.52
2023-11-15T07:59:16.002Z,12.59
2023-11-15T08:01:47.134Z,12.42
2023-11-15T08:04:16.809Z,12.13
2023-11-15T08:06:44.421Z,11.84
2023-11-15T08:09:26.515Z,11.56
2023-11-15T08:11:56.174Z,12.04
2023-11-15T08:14:23.241Z,12.51
2023-11-15T08:16:50.448Z,12.51
2023-11-15T08:19:18.407Z,12.30
2023-11-15T08:21:45.536Z,12.01
2023-11-15T08:24:19.482Z,11.72
2023-11-15T08:26:46.447Z,11.42
2023-11-15T08:29:13.472Z,11.91
2023-11-15T08:31:40.539Z,12.54
2023-11-15T08:34:07.579Z,12.64
2023-11-15T08:36:34.702Z,12.49
2023-11-15T08:39:02.394Z,12.27
2023-11-15T08:41:30.163Z,12.02
2023-11-15T08:43:57.498Z,11.76
2023-11-15T08:46:28.117Z,12.25
2023-11-15T08:48:56.203Z,12.86
2023-11-15T08:51:24.078Z,12.97
2023-11-15T08:53:51.053Z,12.82
2023-11-15T08:56:20.244Z,12.62
2023-11-15T08:58:47.294Z,12.40
2023-11-15T09:01:14.299Z,12.19
2023-11-15T09:03:42.639Z,12.67
2023-11-15T09:06:12.939Z,13.27
2023-11-15T09:08:40.194Z,13.33
2023-11-15T09:11:07.278Z,13.15
2023-11-15T09:13:34.386Z,12.94
2023-11-15T09:16:03.004Z,12.73
2023-11-15T09:18:30.742Z,12.48
2023-11-15T09:20:57.988Z,12.96
2023-11-15T09:23:30.584Z,13.57
2023-11-15T09:26:01.277Z,13.65
2023-11-15T09:28:29.482Z,13.40
2023-11-15T09:30:57.456Z,13.15
2023-11-15T09:33:25.667Z,12.94
2023-11-15T09:35:58.740Z,12.71
2023-11-15T09:38:28.587Z,13.21
2023-11-15T09:40:55.718Z,13.76
2023-11-15T09:43:22.889Z,13.83
2023-11-15T09:45:50.016Z,13.67
2023-11-15T09:48:17.075Z,13.43
2023-11-15T09:50:50.180Z,13.21
2023-11-15T09:53:17.412Z,12.97
2023-11-15T09:55:44.375Z,13.50
2023-11-15T09:58:14.104Z,14.14
2023-11-15T10:00:41.387Z,14.28
2023-11-15T10:03:08.700Z,14.11
2023-11-15T10:05:35.888Z,13.87
2023-11-15T10:08:14.046Z,13.62
2023-11-15T10:10:43.241Z,13.36
2023-11-15T10:13:22.351Z,13.88
2023-11-15T10:15:49.598Z,14.51
2023-11-15T10:18:29.613Z,14.58
2023-11-15T10:21:10.179Z,14.41
2023-11-15T10:23:41.848Z,14.18
2023-11-15T10:26:10.735Z,13.95
2023-11-15T10:28:40.977Z,13.72
2023-11-15T10:31:13.975Z,14.16
2023-11-15T10:33:47.076Z,14.69
2023-11-15T10:36:18.004Z,14.76
2023-11-15T10:38:46.392Z,14.59
2023-11-15T10:41:18.801Z,14.34
2023-11-15T10:43:58.212Z,14.04
2023-11-15T10:46:30.741Z,13.68
2023-11-15T10:48:59.116Z,13.37
2023-11-15T10:51:31.950Z,13.83
2023-11-15T10:53:58.967Z,14.32
2023-11-15T10:56:25.951Z,14.37
2023-11-15T10:58:54.212Z,14.18
2023-11-15T11:01:24.472Z,13.93
2023-11-15T11:03:54.438Z,13.69
2023-11-15T11:06:40.477Z,13.45
2023-11-15T11:09:26.848Z,13.98
2023-11-15T11:12:01.971Z,14.46
2023-11-15T11:14:29.325Z,14.44
2023-11-15T11:16:58.197Z,14.29
2023-11-15T11:19:28.328Z,14.02
2023-11-15T11:22:13.433Z,13.75
2023-11-15T11:24:47.355Z,13.50
2023-11-15T11:27:18.096Z,14.15
2023-11-15T11:29:52.106Z,14.73
2023-11-15T11:32:28.440Z,14.80
2023-11-15T11:35:03.117Z,14.59
2023-11-15T11:37:51.696Z,14.30
2023-11-15T11:40:21.356Z,13.96
2023-11-15T11:42:50.139Z,13.72
2023-11-15T11:45:17.588Z,13.48
2023-11-15T11:47:47.873Z,13.97
2023-11-15T11:50:18.800Z,14.63
2023-11-15T11:52:45.664Z,14.72
2023-11-15T11:55:12.701Z,14.48
2023-11-15T11:57:39.871Z,14.13
2023-11-15T12:00:17.159Z,13.83
2023-11-15T12:02:49.287Z,13.53
2023-11-15T12:05:23.844Z,13.26
2023-11-15T12:07:52.359Z,13.77
2023-11-15T12:10:19.768Z,14.37
2023-11-15T12:13:01.900Z,14.47
2023-11-15T12:15:29.341Z,14.29
2023-11-15T12:17:58.713Z,14.05
2023-11-15T12:20:43.005Z,13.74
2023-11-15T12:23:12.213Z,13.53
2023-11-15T12:25:58.877Z,13.34
2023-11-15T12:28:32.397Z,13.93
2023-11-15T12:31:05.270Z,14.50
2023-11-15T12:33:35.396Z,14.56
2023-11-15T12:36:04.261Z,14.36
2023-11-15T12:38:31.344Z,14.11
2023-11-15T12:41:07.398Z,13.87
2023-11-15T12:43:35.476Z,13.66
2023-11-15T12:46:15.365Z,13.44
2023-11-15T12:48:42.794Z,13.95
2023-11-15T12:51:10.312Z,14.46
2023-11-15T12:53:37.311Z,14.49
2023-11-15T12:56:05.497Z,14.33
2023-11-15T12:58:32.684Z,14.16
2023-11-15T13:01:12.602Z,14.01
2023-11-15T13:03:40.884Z,13.85
2023-11-15T13:06:18.235Z,13.68
2023-11-15T13:08:49.665Z,14.28
2023-11-15T13:12:02.343Z,14.65
2023-11-15T13:14:29.691Z,14.77
2023-11-15T13:16:59.480Z,14.52
2023-11-15T13:19:26.808Z,14.23
2023-11-15T13:21:53.790Z,13.96
2023-11-15T13:24:23.444Z,13.70
2023-11-15T13:26:52.061Z,13.39
2023-11-15T13:29:22.991Z,13.84
2023-11-15T13:31:50.774Z,14.43
2023-11-15T13:36:47.776Z,14.25
2023-11-15T13:39:16.121Z,13.88
2023-11-15T13:41:43.207Z,13.53
2023-11-15T13:44:11.331Z,13.28
2023-11-15T13:46:39.136Z,13.01
2023-11-15T13:49:06.631Z,13.40
2023-11-15T13:51:34.121Z,13.96
2023-11-15T13:54:01.300Z,14.01
2023-11-15T13:56:28.281Z,13.82
2023-11-15T13:58:55.330Z,13.58
2023-11-15T14:01:22.500Z,13.29
2023-11-15T14:03:49.478Z,13.04
2023-11-15T14:06:16.582Z,12.77
2023-11-15T14:08:51.717Z,13.17
2023-11-15T14:11:26.474Z,13.75
2023-11-15T14:13:53.495Z,13.75
2023-11-15T14:16:22.430Z,13.53
2023-11-15T14:18:51.250Z,13.30
2023-11-15T14:21:18.632Z,13.08
2023-11-15T14:23:45.714Z,12.84
2023-11-15T14:26:15.404Z,12.59
2023-11-15T14:28:47.480Z,13.09
2023-11-15T14:31:14.921Z,13.68
2023-11-15T14:33:42.199Z,13.79
2023-11-15T14:36:11.046Z,13.64
2023-11-15T14:38:38.644Z,13.37
2023-11-15T14:41:05.953Z,13.10
2023-11-15T14:43:33.731Z,12.81
2023-11-15T14:46:00.900Z,12.50
2023-11-15T14:48:28.278Z,12.97
2023-11-15T14:50:55.532Z,13.54
2023-11-15T14:53:22.556Z,13.58
2023-11-15T14:55:49.658Z,13.32
2023-11-15T14:58:18.042Z,13.05
2023-11-15T15:00:45.119Z,12.74
2023-11-15T15:03:13.050Z,12.48
2023-11-15T15:05:40.752Z,12.21
2023-11-15T15:08:13.285Z,12.69
2023-11-15T15:10:40.448Z,13.30
2023-11-15T15:13:10.951Z,13.36
2023-11-15T15:15:38.752Z,13.21
2023-11-15T15:18:06.830Z,12.94
2023-11-15T15:20:36.174Z,12.63
2023-11-15T15:23:04.069Z,12.32
2023-11-15T15:25:32.149Z,12.72
2023-11-15T15:27:59.301Z,13.27
2023-11-15T15:30:33.687Z,13.29
2023-11-15T15:33:02.031Z,13.06
2023-11-15T15:35:32.469Z,12.76
2023-11-15T15:37:59.495Z,12.46
2023-11-15T15:40:31.828Z,12.17
2023-11-15T15:42:59.520Z,12.62
2023-11-15T15:45:27.898Z,13.14
2023-11-15T15:47:56.524Z,13.18
2023-11-15T15:50:23.686Z,12.96
2023-11-15T15:52:50.706Z,12.69
2023-11-15T15:55:18.158Z,12.36
2023-11-15T15:57:45.384Z,12.08
2023-11-15T16:00:12.932Z,12.49
2023-11-15T16:02:40.288Z,13.00
2023-11-15T16:05:09.957Z,13.02
2023-11-15T16:07:36.936Z,12.81
2023-11-15T16:10:05.744Z,12.53
2023-11-15T16:12:35.483Z,12.23
2023-11-15T16:15:02.545Z,11.98
2023-11-15T16:17:37.530Z,12.44
2023-11-15T16:20:06.202Z,13.02
2023-11-15T16:22:33.501Z,13.01
2023-11-15T16:25:00.420Z,12.78
2023-11-15T16:27:34.407Z,12.48
2023-11-15T16:30:09.564Z,12.14
2023-11-15T16:32:39.083Z,11.81
2023-11-15T16:35:08.947Z,12.33
2023-11-15T16:37:39.426Z,12.93
2023-11-15T16:40:09.132Z,12.90
2023-11-15T16:42:36.721Z,12.66
2023-11-15T16:45:07.990Z,12.40
2023-11-15T16:47:36.329Z,12.09
2023-11-15T16:50:05.086Z,11.80
2023-11-15T16:52:34.600Z,12.30
2023-11-15T16:55:02.924Z,12.92
2023-11-15T16:57:30.761Z,12.98
2023-11-15T16:59:58.961Z,12.76
2023-11-15T17:02:27.254Z,12.48
2023-11-15T17:04:54.806Z,12.20
2023-11-15T17:07:22.530Z,11.92
2023-11-15T17:09:53.238Z,12.40
2023-11-15T17:12:20.899Z,12.98
2023-11-15T17:14:48.165Z,12.98
2023-11-15T17:17:16.983Z,12.78
2023-11-15T17:19:45.617Z,12.51
2023-11-15T17:22:15.406Z,12.18
2023-11-15T17:24:42.785Z,11.89
2023-11-15T17:27:10.183Z,12.34
2023-11-15T17:29:37.660Z,12.89
2023-11-15T17:32:06.422Z,12.91
2023-11-15T17:34:33.939Z,12.71
2023-11-15T17:37:01.692Z,12.47
2023-11-15T17:39:30.317Z,12.20
2023-11-15T17:41:57.753Z,11.92
2023-11-15T17:44:24.934Z,12.39
2023-11-15T17:46:52.079Z,12.95
2023-11-15T17:49:19.585Z,13.00
2023-11-15T17:51:47.979Z,12.78
2023-11-15T17:54:18.108Z,12.47
2023-11-15T17:56:46.329Z,12.23
2023-11-15T17:59:14.000Z,11.94
2023-11-15T18:01:40.966Z,12.35
2023-11-15T18:04:15.832Z,12.86
2023-11-15T18:06:44.332Z,12.81
2023-11-15T18:09:11.734Z,12.47
2023-11-15T18:11:39.109Z,12.14
2023-11-15T18:14:07.458Z,11.86
2023-11-15T18:16:34.668Z,12.24
2023-11-15T18:19:09.831Z,12.68
2023-11-15T18:21:39.284Z,12.67
2023-11-15T18:24:07.146Z,12.36
2023-11-15T18:26:37.039Z,12.11
2023-11-15T18:29:05.307Z,11.80
2023-11-15T18:31:32.612Z,12.15
2023-11-15T18:33:59.826Z,12.59
2023-11-15T18:36:29.700Z,12.56
2023-11-15T18:38:57.500Z,12.30
2023-11-15T18:41:24.494Z,12.00
2023-11-15T18:43:55.897Z,11.69
2023-11-15T18:46:24.942Z,12.04
2023-11-15T18:48:52.090Z,12.53
2023-11-15T18:51:23.377Z,12.51
2023-11-15T18:53:51.400Z,12.31
2023-11-15T18:56:18.576Z,11.98
2023-11-15T18:58:46.584Z,11.73
2023-11-15T19:01:13.688Z,11.44
2023-11-15T19:03:41.250Z,11.87
2023-11-15T19:06:08.941Z,12.42
2023-11-15T19:08:36.196Z,12.46
2023-11-15T19:11:03.600Z,12.22
2023-11-15T19:13:30.695Z,11.92
2023-11-15T19:15:59.447Z,11.60
2023-11-15T19:18:29.948Z,11.30
2023-11-15T19:20:58.904Z,11.80
2023-11-15T19:23:26.711Z,12.35
2023-11-15T19:25:53.963Z,12.40
2023-11-15T19:28:21.537Z,12.21
2023-11-15T19:30:50.651Z,11.93
2023-11-15T19:33:18.445Z,11.67
2023-11-15T19:35:46.931Z,11.39
2023-11-15T19:38:16.474Z,11.82
2023-11-15T19:40:43.541Z,12.43
2023-11-15T19:43:10.637Z,12.45
2023-11-15T19:45:38.057Z,12.20
2023-11-15T19:48:05.998Z,11.92
2023-11-15T19:50:33.321Z,11.68
2023-11-15T19:53:08.321Z,11.45
2023-11-15T19:55:36.919Z,11.92
2023-11-15T19:58:05.922Z,12.45
2023-11-15T20:00:34.121Z,12.46
2023-11-15T20:03:01.281Z,12.24
2023-11-15T20:05:28.385Z,11.95
2023-11-15T20:07:55.587Z,11.66
2023-11-15T20:10:23.423Z,11.33
2023-11-15T20:12:51.113Z,11.67
2023-11-15T20:15:19.517Z,12.09
2023-11-15T20:17:47.033Z,12.11
2023-11-15T20:20:16.591Z,11.94
2023-11-15T20:22:50.673Z,11.69
2023-11-15T20:25:20.647Z,11.36
2023-11-15T20:27:47.957Z,11.78
2023-11-15T20:30:15.286Z,12.28
2023-11-15T20:32:42.642Z,12.28
2023-11-15T20:35:12.125Z,12.04
2023-11-15T20:37:39.317Z,11.73
2023-11-15T20:40:08.841Z,11.46
2023-11-15T20:42:36.300Z,11.22
2023-11-15T20:45:03.604Z,11.73
2023-11-15T20:47:30.971Z,12.23
2023-11-15T20:49:58.155Z,12.23
2023-11-15T20:52:26.018Z,11.97
2023-11-15T20:54:53.068Z,11.78
2023-11-15T20:57:20.728Z,11.50
2023-11-15T20:59:47.763Z,11.22
2023-11-15T21:02:15.505Z,11.63
2023-11-15T21:04:43.345Z,12.17
2023-11-15T21:07:12.452Z,12.25
2023-11-15T21:09:40.780Z,12.01
2023-11-15T21:12:09.807Z,11.69
2023-11-15T21:14:39.566Z,11.42
2023-11-15T21:17:06.872Z,11.16
2023-11-15T21:19:34.074Z,11.66
2023-11-15T21:22:01.091Z,12.24
2023-11-15T21:24:28.303Z,12.29
2023-11-15T21:26:57.458Z,12.05
2023-11-15T21:29:25.870Z,11.75
2023-11-15T21:31:54.949Z,11.48
2023-11-15T21:34:22.074Z,11.20
2023-11-15T21:36:49.192Z,11.66
2023-11-15T21:39:16.414Z,12.20
2023-11-15T21:41:46.460Z,12.24
2023-11-15T21:44:17.821Z,12.05
2023-11-15T21:46:44.811Z,11.75
2023-11-15T21:49:12.607Z,11.46
2023-11-15T21:51:40.620Z,11.16
2023-11-15T21:54:08.679Z,11.61
2023-11-15T21:56:35.689Z,12.12
2023-11-15T21:59:02.683Z,12.21
2023-11-15T22:01:31.365Z,11.94
2023-11-15T22:03:58.791Z,11.68
2023-11-15T22:06:27.523Z,11.42
2023-11-15T22:08:54.765Z,11.09
2023-11-15T22:11:21.896Z,11.54
2023-11-15T22:13:48.755Z,12.07
2023-11-15T22:16:16.627Z,12.08
2023-11-15T22:18:44.153Z,11.92
2023-11-15T22:21:11.591Z,11.65
2023-11-15T22:23:38.589Z,11.38
2023-11-15T22:26:06.066Z,11.10
2023-11-15T22:28:33.318Z,11.44
2023-11-15T22:31:00.515Z,11.89
2023-11-15T22:33:27.559Z,11.88
2023-11-15T22:35:54.429Z,11.71
2023-11-15T22:38:23.120Z,11.42
2023-11-15T22:40:51.175Z,11.15
2023-11-15T22:43:19.144Z,10.90
2023-11-15T22:45:47.164Z,11.31
2023-11-15T22:48:14.362Z,11.84
2023-11-15T22:50:43.071Z,11.85
2023-11-15T22:53:10.339Z,11.69
2023-11-15T22:55:37.257Z,11.45
2023-11-15T22:58:04.135Z,11.19
2023-11-15T23:00:34.650Z,10.94
2023-11-15T23:03:10.584Z,11.39
2023-11-15T23:05:51.087Z,11.93
2023-11-15T23:08:18.163Z,11.97
2023-11-15T23:10:45.305Z,11.80
2023-11-15T23:13:12.290Z,11.52
2023-11-15T23:15:39.476Z,11.20
2023-11-15T23:18:06.839Z,10.89
2023-11-15T23:20:39.434Z,11.25
2023-11-15T23:23:08.251Z,11.72
2023-11-15T23:25:35.440Z,11.73
2023-11-15T23:28:04.089Z,11.48
2023-11-15T23:30:31.218Z,11.16
2023-11-15T23:32:58.907Z,10.82
2023-11-15T23:35:25.995Z,10.51
2023-11-15T23:37:58.684Z,10.85
2023-11-15T23:40:30.126Z,11.24
2023-11-15T23:42:57.480Z,11.13
2023-11-15T23:45:24.560Z,10.93
2023-11-15T23:47:53.914Z,10.60
2023-11-15T23:50:24.269Z,10.30
2023-11-15T23:52:52.739Z,10.06
2023-11-15T23:55:20.536Z,9.79
2023-11-15T23:57:50.579Z,10.28
